Time;durP1;ratioP1;P1;durP2;ratioP2;P2;SDS_P1;SDS_P2;PMS_P1;PMS_P2;Temp;Humidity;BMP_temperature;BMP_pressure;BME280_temperature;BME280_humidity;BME280_pressure;Samples;Min_cycle;Max_cycle;Signal;HPM_P1;HPM_P2
2021/08/08 00:00:26;;;;;;;0.20;0.20;;;14.60;99.90;;;;;;4960274;28;20215;-86
2021/08/08 00:02:52;;;;;;;0.00;0.00;;;14.70;99.90;;;;;;4958111;28;20875;-85
2021/08/08 00:05:17;;;;;;;0.00;0.00;;;14.70;99.90;;;;;;4955424;28;20575;-86
2021/08/08 00:07:43;;;;;;;5.07;0.57;;;14.70;99.90;;;;;;4958341;28;20540;-86
2021/08/08 00:10:12;;;;;;;1.40;0.67;;;14.60;99.90;;;;;;4953362;28;20038;-85
2021/08/08 00:12:38;;;;;;;0.08;0.08;;;14.40;99.90;;;;;;4959814;28;20168;-85
2021/08/08 00:15:05;;;;;;;0.00;0.00;;;14.20;99.90;;;;;;4958304;28;20083;-85
2021/08/08 00:17:31;;;;;;;0.43;0.35;;;14.10;99.90;;;;;;4955707;28;20315;-86
2021/08/08 00:19:57;;;;;;;0.00;0.00;;;14.00;99.90;;;;;;4960957;28;20921;-86
2021/08/08 00:22:23;;;;;;;0.23;0.23;;;13.90;99.90;;;;;;4957330;28;20340;-86
2021/08/08 00:24:48;;;;;;;0.00;0.00;;;14.10;99.90;;;;;;4950249;28;20094;-86
2021/08/08 00:27:14;;;;;;;0.07;0.07;;;14.20;99.90;;;;;;4963485;28;20031;-86
2021/08/08 00:29:40;;;;;;;0.00;0.00;;;14.30;99.90;;;;;;4958521;28;20027;-85
2021/08/08 00:32:07;;;;;;;0.60;0.57;;;14.30;99.90;;;;;;4959091;28;20035;-85
2021/08/08 00:34:33;;;;;;;;;;;14.30;99.90;;;;;;4957953;28;20030;-85
2021/08/08 00:36:58;;;;;;;0.20;0.20;;;14.30;99.90;;;;;;4958006;28;19962;-86
2021/08/08 00:39:25;;;;;;;0.00;0.00;;;14.40;99.90;;;;;;4958495;28;20036;-86
2021/08/08 00:41:51;;;;;;;0.20;0.20;;;14.50;99.90;;;;;;4956695;28;20502;-86
2021/08/08 00:44:17;;;;;;;0.10;0.10;;;14.60;99.90;;;;;;4962948;28;20038;-86
2021/08/08 00:46:42;;;;;;;0.30;0.30;;;14.60;99.90;;;;;;4958960;28;20037;-85
2021/08/08 00:49:08;;;;;;;0.20;0.20;;;14.60;99.90;;;;;;4956103;28;20039;-85
2021/08/08 00:51:36;;;;;;;0.20;0.20;;;14.50;99.90;;;;;;4957024;28;20037;-86
2021/08/08 00:54:02;;;;;;;0.22;0.20;;;14.40;99.90;;;;;;4959142;28;20521;-85
2021/08/08 00:56:28;;;;;;;0.00;0.00;;;14.20;99.90;;;;;;4958388;28;20034;-85
2021/08/08 00:58:55;;;;;;;0.00;0.00;;;14.10;99.90;;;;;;4959396;28;20027;-85
2021/08/08 01:01:27;;;;;;;0.10;0.10;;;14.00;99.90;;;;;;4954105;28;20073;-86
2021/08/08 01:03:54;;;;;;;0.00;0.00;;;13.90;99.90;;;;;;4962465;28;20031;-84
2021/08/08 01:06:26;;;;;;;;;;;14.00;99.90;;;;;;4963800;28;20035;-85
2021/08/08 01:08:55;;;;;;;0.03;0.03;;;14.10;99.90;;;;;;4958607;28;19914;-85
2021/08/08 01:11:23;;;;;;;0.00;0.00;;;14.30;99.90;;;;;;4957470;28;20031;-86
2021/08/08 01:13:51;;;;;;;0.10;0.10;;;14.30;99.90;;;;;;4960701;28;20502;-86
2021/08/08 01:16:20;;;;;;;4.38;0.80;;;14.40;99.90;;;;;;4959240;28;20879;-87
2021/08/08 01:18:48;;;;;;;0.10;0.10;;;14.40;99.90;;;;;;4957222;28;20042;-85
2021/08/08 01:21:14;;;;;;;0.00;0.00;;;14.30;99.90;;;;;;4961207;28;20035;-86
2021/08/08 01:23:42;;;;;;;0.00;0.00;;;14.30;99.90;;;;;;4962820;28;20043;-85
2021/08/08 01:26:08;;;;;;;2.08;0.47;;;14.40;99.90;;;;;;4961569;28;20144;-86
2021/08/08 01:28:34;;;;;;;0.10;0.10;;;14.50;99.90;;;;;;4959118;28;20605;-86
2021/08/08 01:31:00;;;;;;;0.00;0.00;;;14.50;99.90;;;;;;4958466;28;20038;-86
2021/08/08 01:33:25;;;;;;;0.10;0.10;;;14.30;99.90;;;;;;4960259;28;20828;-87
2021/08/08 01:35:52;;;;;;;0.00;0.00;;;14.20;99.90;;;;;;4959344;28;20138;-86
2021/08/08 01:38:20;;;;;;;0.00;0.00;;;14.30;99.90;;;;;;4959675;28;20072;-85
2021/08/08 01:40:54;;;;;;;0.28;0.28;;;14.20;99.90;;;;;;4953243;28;20086;-86
2021/08/08 01:43:28;;;;;;;5.60;1.48;;;14.30;99.90;;;;;;4952149;28;20482;-86
2021/08/08 01:46:04;;;;;;;0.05;0.05;;;14.30;99.90;;;;;;4958992;28;20106;-86
2021/08/08 01:48:34;;;;;;;0.10;0.10;;;14.30;99.90;;;;;;4960820;28;20134;-85
2021/08/08 01:51:00;;;;;;;2.38;0.20;;;14.40;99.90;;;;;;4958832;28;20159;-86
2021/08/08 01:53:29;;;;;;;0.00;0.00;;;14.40;99.90;;;;;;4959537;28;20038;-86
2021/08/08 01:55:55;;;;;;;0.10;0.10;;;14.40;99.90;;;;;;4954776;28;20347;-87
2021/08/08 01:58:21;;;;;;;0.00;0.00;;;14.30;99.90;;;;;;4947151;28;20101;-86
2021/08/08 02:00:50;;;;;;;0.10;0.03;;;14.10;99.90;;;;;;4960511;28;20083;-85
2021/08/08 02:03:16;;;;;;;0.30;0.30;;;13.80;99.90;;;;;;4960090;28;20045;-86
2021/08/08 02:05:41;;;;;;;0.70;0.70;;;13.70;99.90;;;;;;4958395;28;20042;-86
2021/08/08 02:08:07;;;;;;;0.10;0.10;;;13.40;99.90;;;;;;4957501;28;20043;-85
2021/08/08 02:10:33;;;;;;;0.07;0.07;;;13.30;99.90;;;;;;4952567;28;20114;-85
2021/08/08 02:12:59;;;;;;;0.10;0.10;;;13.10;99.90;;;;;;4956304;28;20034;-86
2021/08/08 02:15:25;;;;;;;0.00;0.00;;;13.10;99.90;;;;;;4954421;28;20302;-85
2021/08/08 02:17:50;;;;;;;0.00;0.00;;;13.00;99.90;;;;;;4958729;28;20038;-85
2021/08/08 02:20:18;;;;;;;0.30;0.30;;;12.90;99.90;;;;;;4957901;28;20133;-86
2021/08/08 02:22:44;;;;;;;0.10;0.10;;;12.90;99.90;;;;;;4958747;28;20049;-85
2021/08/08 02:25:11;;;;;;;0.15;0.15;;;12.90;99.90;;;;;;4954863;28;20034;-86
2021/08/08 02:27:37;;;;;;;0.10;0.10;;;12.90;99.90;;;;;;4959288;28;20038;-84
2021/08/08 02:30:08;;;;;;;0.20;0.20;;;12.80;99.90;;;;;;4959078;28;20050;-85
2021/08/08 02:32:33;;;;;;;0.10;0.10;;;12.80;99.90;;;;;;4957652;28;20027;-85
2021/08/08 02:34:59;;;;;;;0.13;0.13;;;12.70;99.90;;;;;;4958733;28;20103;-86
2021/08/08 02:37:25;;;;;;;0.10;0.10;;;12.70;99.90;;;;;;4960249;28;20129;-86
2021/08/08 02:39:50;;;;;;;0.40;0.37;;;12.60;99.90;;;;;;4957508;28;20042;-85
2021/08/08 02:42:16;;;;;;;0.10;0.10;;;12.60;99.90;;;;;;4959502;28;20588;-85
2021/08/08 02:44:42;;;;;;;0.10;0.10;;;12.60;99.90;;;;;;4957539;28;20138;-86
2021/08/08 02:47:07;;;;;;;0.10;0.10;;;12.60;99.90;;;;;;4955513;28;20043;-86
2021/08/08 02:49:33;;;;;;;0.00;0.00;;;12.60;99.90;;;;;;4956619;28;20093;-85
2021/08/08 02:51:59;;;;;;;0.10;0.10;;;12.60;99.90;;;;;;4955586;28;20078;-86
2021/08/08 02:54:25;;;;;;;0.10;0.10;;;12.60;99.90;;;;;;4961673;28;20060;-86
2021/08/08 02:56:50;;;;;;;3.00;1.70;;;12.50;99.90;;;;;;4958346;28;20035;-85
2021/08/08 02:59:16;;;;;;;0.20;0.20;;;12.60;99.90;;;;;;4957275;28;20027;-86
2021/08/08 03:01:42;;;;;;;0.43;0.17;;;12.50;99.90;;;;;;4954657;28;20543;-86
2021/08/08 03:04:07;;;;;;;0.10;0.10;;;12.60;99.90;;;;;;4957159;28;20047;-85
2021/08/08 03:06:33;;;;;;;1.48;1.20;;;12.60;99.90;;;;;;4959574;28;20019;-86
2021/08/08 03:08:58;;;;;;;0.55;0.55;;;12.60;99.90;;;;;;4952126;28;20059;-86
2021/08/08 03:11:24;;;;;;;0.17;0.17;;;12.70;99.90;;;;;;4956455;28;20073;-85
2021/08/08 03:13:50;;;;;;;0.10;0.10;;;13.00;99.90;;;;;;4957828;28;20049;-85
2021/08/08 03:16:15;;;;;;;0.00;0.00;;;13.20;99.90;;;;;;4958324;28;20121;-85
2021/08/08 03:18:41;;;;;;;0.10;0.10;;;13.40;99.90;;;;;;4959705;28;20114;-85
2021/08/08 03:21:07;;;;;;;0.40;0.40;;;13.50;99.90;;;;;;4958321;28;20035;-86
2021/08/08 03:23:34;;;;;;;0.77;0.73;;;13.60;99.90;;;;;;4958917;28;20055;-86
2021/08/08 03:26:00;;;;;;;0.10;0.10;;;13.50;99.90;;;;;;4956698;28;20125;-86
2021/08/08 03:28:25;;;;;;;0.10;0.10;;;13.50;99.90;;;;;;4957087;28;20460;-86
2021/08/08 03:30:51;;;;;;;0.10;0.10;;;13.60;99.90;;;;;;4955178;28;20078;-86
2021/08/08 03:33:17;;;;;;;0.20;0.20;;;13.70;99.90;;;;;;4959906;28;20069;-85
2021/08/08 03:35:43;;;;;;;0.00;0.00;;;13.70;99.90;;;;;;4951807;28;20078;-86
2021/08/08 03:38:08;;;;;;;0.00;0.00;;;13.60;99.90;;;;;;4958953;28;20031;-86
2021/08/08 03:40:35;;;;;;;0.00;0.00;;;13.50;99.90;;;;;;4957076;28;20543;-86
2021/08/08 03:43:01;;;;;;;10.43;0.52;;;13.40;99.90;;;;;;4960555;28;20030;-86
2021/08/08 03:45:27;;;;;;;0.08;0.08;;;13.40;99.90;;;;;;4959439;28;20043;-86
2021/08/08 03:47:52;;;;;;;0.10;0.10;;;13.30;99.90;;;;;;4955407;28;20057;-86
2021/08/08 03:50:18;;;;;;;0.93;0.40;;;13.40;99.90;;;;;;4957860;28;20064;-86
2021/08/08 03:52:44;;;;;;;0.00;0.00;;;13.30;99.90;;;;;;4955267;28;20027;-86
2021/08/08 03:55:10;;;;;;;0.10;0.10;;;13.30;99.90;;;;;;4955737;28;20150;-86
2021/08/08 03:57:35;;;;;;;0.33;0.33;;;13.30;99.90;;;;;;4952415;28;20458;-87
2021/08/08 04:00:01;;;;;;;0.00;0.00;;;13.30;99.90;;;;;;4950798;28;20034;-87
2021/08/08 04:02:27;;;;;;;0.10;0.10;;;13.20;99.90;;;;;;4953406;28;20019;-85
2021/08/08 04:04:53;;;;;;;0.20;0.20;;;13.10;99.90;;;;;;4958683;28;20027;-86
2021/08/08 04:07:19;;;;;;;0.17;0.17;;;13.10;99.90;;;;;;4949969;28;20109;-86
2021/08/08 04:09:45;;;;;;;0.20;0.20;;;13.20;99.90;;;;;;4950712;28;20521;-86
2021/08/08 04:12:11;;;;;;;0.00;0.00;;;13.30;99.90;;;;;;4956224;28;20081;-86
2021/08/08 04:14:37;;;;;;;1.60;0.93;;;13.30;99.90;;;;;;4958773;28;20043;-86
2021/08/08 04:17:04;;;;;;;0.00;0.00;;;13.40;99.90;;;;;;4950429;28;20050;-86
2021/08/08 04:19:30;;;;;;;;;;;13.40;99.90;;;;;;4952282;28;20516;-86
2021/08/08 04:21:55;;;;;;;0.10;0.10;;;13.50;99.90;;;;;;4954496;28;19914;-86
2021/08/08 04:24:21;;;;;;;0.10;0.10;;;13.50;99.90;;;;;;4958313;28;20113;-85
2021/08/08 04:26:47;;;;;;;0.00;0.00;;;13.60;99.90;;;;;;4958744;28;20070;-85
2021/08/08 04:29:12;;;;;;;0.90;0.87;;;13.50;99.90;;;;;;4953684;28;20142;-85
2021/08/08 04:31:38;;;;;;;0.03;0.03;;;13.60;99.90;;;;;;4955923;28;20054;-85
2021/08/08 04:34:03;;;;;;;0.30;0.30;;;13.60;99.90;;;;;;4956012;28;20026;-86
2021/08/08 04:36:29;;;;;;;0.33;0.33;;;13.80;99.90;;;;;;4956497;28;20073;-85
2021/08/08 04:38:55;;;;;;;2.23;0.67;;;13.90;99.90;;;;;;4956184;28;20162;-86
2021/08/08 04:41:20;;;;;;;0.10;0.10;;;13.90;99.90;;;;;;4953605;28;20043;-85
2021/08/08 04:43:46;;;;;;;0.47;0.47;;;14.00;99.90;;;;;;4958127;28;20030;-86
2021/08/08 04:46:12;;;;;;;0.10;0.10;;;14.00;99.90;;;;;;4955275;28;20035;-86
2021/08/08 04:48:37;;;;;;;0.10;0.10;;;13.90;99.90;;;;;;4961424;28;20126;-85
2021/08/08 04:51:03;;;;;;;2.00;0.47;;;13.80;99.90;;;;;;4959112;28;20489;-87
2021/08/08 04:53:29;;;;;;;0.53;0.37;;;13.90;99.90;;;;;;4957080;28;20383;-86
2021/08/08 04:55:55;;;;;;;0.00;0.00;;;13.90;99.90;;;;;;4951609;28;20038;-86
2021/08/08 04:58:21;;;;;;;0.00;0.00;;;14.00;99.90;;;;;;4955194;28;20035;-86
2021/08/08 05:00:47;;;;;;;0.10;0.10;;;14.00;99.90;;;;;;4953934;28;20526;-86
2021/08/08 05:03:13;;;;;;;0.10;0.10;;;14.10;99.90;;;;;;4958067;28;20145;-86
2021/08/08 05:05:39;;;;;;;0.00;0.00;;;14.10;99.90;;;;;;4962472;28;20023;-86
2021/08/08 05:08:04;;;;;;;0.13;0.13;;;14.10;99.90;;;;;;4960308;28;20042;-87
2021/08/08 05:10:30;;;;;;;0.10;0.10;;;14.10;99.90;;;;;;4957487;28;20106;-87
2021/08/08 05:12:56;;;;;;;0.00;0.00;;;14.20;99.90;;;;;;4962873;28;20039;-82
2021/08/08 05:15:23;;;;;;;0.00;0.00;;;14.20;99.90;;;;;;4954024;28;20039;-85
2021/08/08 05:17:49;;;;;;;;;;;14.20;99.90;;;;;;4958469;28;20109;-86
2021/08/08 05:20:15;;;;;;;4.27;0.70;;;14.20;99.90;;;;;;4958833;28;20005;-86
2021/08/08 05:22:41;;;;;;;0.00;0.00;;;14.10;99.90;;;;;;4959214;28;20055;-87
2021/08/08 05:25:08;;;;;;;0.00;0.00;;;14.10;99.90;;;;;;4962242;28;20030;-86
2021/08/08 05:27:34;;;;;;;0.00;0.00;;;14.30;99.90;;;;;;4960167;28;20037;-86
2021/08/08 05:30:01;;;;;;;0.00;0.00;;;14.30;99.90;;;;;;4956867;28;20118;-86
2021/08/08 05:32:26;;;;;;;0.10;0.10;;;14.10;99.90;;;;;;4958864;28;20290;-87
2021/08/08 05:34:52;;;;;;;0.10;0.10;;;14.00;99.90;;;;;;4959866;28;20046;-86
2021/08/08 05:37:18;;;;;;;0.17;0.17;;;14.10;99.90;;;;;;4960678;28;20787;-86
2021/08/08 05:39:43;;;;;;;0.33;0.33;;;14.10;99.90;;;;;;4959022;28;20098;-85
2021/08/08 05:42:09;;;;;;;0.10;0.10;;;14.20;99.90;;;;;;4957052;28;20034;-85
2021/08/08 05:44:38;;;;;;;0.00;0.00;;;14.30;99.90;;;;;;4956527;28;20039;-84
2021/08/08 05:47:06;;;;;;;0.03;0.03;;;14.50;99.90;;;;;;4962015;28;20026;-86
2021/08/08 05:49:33;;;;;;;3.35;1.35;;;14.80;99.90;;;;;;4958091;28;20053;-85
2021/08/08 05:52:02;;;;;;;;;;;14.90;99.90;;;;;;4963430;28;20122;-86
2021/08/08 05:54:29;;;;;;;0.10;0.10;;;15.00;99.90;;;;;;4959722;28;19921;-85
2021/08/08 05:56:54;;;;;;;0.00;0.00;;;15.30;99.90;;;;;;4960299;28;20098;-86
2021/08/08 05:59:20;;;;;;;0.00;0.00;;;15.00;99.90;;;;;;4959104;28;20043;-85
2021/08/08 06:01:46;;;;;;;0.00;0.00;;;14.90;99.90;;;;;;4949897;28;20027;-86
2021/08/08 06:04:12;;;;;;;0.20;0.20;;;15.20;99.90;;;;;;4956522;28;20046;-86
2021/08/08 06:06:37;;;;;;;0.03;0.03;;;15.40;99.90;;;;;;4959998;28;20057;-86
2021/08/08 06:09:03;;;;;;;0.07;0.07;;;15.40;99.90;;;;;;4957935;28;20050;-86
2021/08/08 06:11:29;;;;;;;0.10;0.10;;;15.80;99.90;;;;;;4960903;28;20413;-85
2021/08/08 06:13:54;;;;;;;0.10;0.10;;;15.90;99.90;;;;;;4956446;28;20035;-86
2021/08/08 06:16:20;;;;;;;0.00;0.00;;;16.20;99.90;;;;;;4955335;28;20054;-85
2021/08/08 06:18:46;;;;;;;1.20;1.10;;;17.20;99.90;;;;;;4955676;28;20027;-86
2021/08/08 06:21:12;;;;;;;0.10;0.10;;;18.30;99.90;;;;;;4961282;28;20074;-86
2021/08/08 06:23:37;;;;;;;0.00;0.00;;;17.50;99.90;;;;;;4959024;28;20046;-86
2021/08/08 06:26:03;;;;;;;0.00;0.00;;;17.10;99.90;;;;;;4958159;28;20035;-86
2021/08/08 06:28:29;;;;;;;0.20;0.20;;;16.90;99.90;;;;;;4955939;28;20041;-86
2021/08/08 06:30:55;;;;;;;1.10;0.33;;;17.00;99.90;;;;;;4958510;28;20106;-87
2021/08/08 06:33:21;;;;;;;0.40;0.40;;;16.90;99.90;;;;;;4962510;28;20483;-86
2021/08/08 06:35:48;;;;;;;0.00;0.00;;;17.00;99.90;;;;;;4958807;28;20050;-86
2021/08/08 06:38:14;;;;;;;0.10;0.10;;;17.50;99.90;;;;;;4959120;28;20077;-87
2021/08/08 06:40:39;;;;;;;0.00;0.00;;;17.70;99.90;;;;;;4955222;28;20034;-86
2021/08/08 06:43:05;;;;;;;0.00;0.00;;;18.30;99.90;;;;;;4961333;28;20034;-86
2021/08/08 06:45:32;;;;;;;0.00;0.00;;;18.20;99.90;;;;;;4962039;28;20040;-87
2021/08/08 06:47:59;;;;;;;0.20;0.20;;;18.20;99.90;;;;;;4965211;28;20572;-86
2021/08/08 06:50:25;;;;;;;0.10;0.10;;;18.80;99.90;;;;;;4959450;28;20454;-89
2021/08/08 06:52:51;;;;;;;0.00;0.00;;;19.50;99.90;;;;;;4957117;28;20161;-88
2021/08/08 06:55:17;;;;;;;0.00;0.00;;;19.50;99.90;;;;;;4965657;28;20499;-89
2021/08/08 06:57:42;;;;;;;0.00;0.00;;;19.90;99.90;;;;;;4967003;28;20379;-87
2021/08/08 07:00:08;;;;;;;0.00;0.00;;;20.70;99.90;;;;;;4964070;28;20038;-87
2021/08/08 07:02:34;;;;;;;0.00;0.00;;;21.50;99.90;;;;;;4964435;28;20046;-87
2021/08/08 07:05:01;;;;;;;0.40;0.40;;;22.90;99.90;;;;;;4962164;28;20073;-87
2021/08/08 07:07:27;;;;;;;0.30;0.30;;;25.30;99.90;;;;;;4954201;28;20063;-87
2021/08/08 07:09:53;;;;;;;0.08;0.08;;;26.20;99.90;;;;;;4965577;28;20137;-88
2021/08/08 07:12:19;;;;;;;0.00;0.00;;;24.60;99.90;;;;;;4960490;28;20068;-88
2021/08/08 07:14:45;;;;;;;0.00;0.00;;;23.50;99.90;;;;;;4963605;28;20127;-87
2021/08/08 07:17:10;;;;;;;0.00;0.00;;;21.80;99.90;;;;;;4955093;28;20035;-86
2021/08/08 07:19:36;;;;;;;0.23;0.23;;;20.30;99.90;;;;;;4951097;28;20027;-87
2021/08/08 07:22:02;;;;;;;0.00;0.00;;;19.70;99.90;;;;;;4956903;28;20053;-87
2021/08/08 07:24:28;;;;;;;0.00;0.00;;;20.40;99.90;;;;;;4956820;28;20557;-86
2021/08/08 07:26:54;;;;;;;0.10;0.10;;;20.70;99.90;;;;;;4953763;28;20118;-86
2021/08/08 07:29:19;;;;;;;0.32;0.32;;;22.60;99.90;;;;;;4949308;28;20030;-86
2021/08/08 07:31:45;;;;;;;2.33;0.80;;;22.00;99.90;;;;;;4944821;28;20073;-87
2021/08/08 07:34:11;;;;;;;0.00;0.00;;;23.10;99.90;;;;;;4954828;28;20050;-88
2021/08/08 07:36:37;;;;;;;0.53;0.53;;;25.50;99.90;;;;;;4956381;28;20035;-86
2021/08/08 07:39:03;;;;;;;0.05;0.05;;;28.60;99.90;;;;;;4949912;28;20117;-87
2021/08/08 07:41:28;;;;;;;0.98;0.65;;;27.00;99.90;;;;;;4952805;28;20057;-87
2021/08/08 07:43:54;;;;;;;0.00;0.00;;;25.90;99.90;;;;;;4952339;28;20496;-87
2021/08/08 07:46:20;;;;;;;5.63;1.17;;;26.80;99.90;;;;;;4953055;28;20043;-86
2021/08/08 07:48:47;;;;;;;1.88;0.43;;;28.80;96.00;;;;;;4950147;28;20128;-84
2021/08/08 07:51:13;;;;;;;0.35;0.10;;;28.20;98.10;;;;;;4956154;28;20051;-84
2021/08/08 07:53:40;;;;;;;0.00;0.00;;;24.90;99.60;;;;;;4957111;28;20061;-83
2021/08/08 07:56:06;;;;;;;1.77;1.17;;;23.70;99.90;;;;;;4958508;28;20210;-85
2021/08/08 07:58:32;;;;;;;0.10;0.10;;;22.90;99.90;;;;;;4956483;28;20026;-83
2021/08/08 08:00:58;;;;;;;0.38;0.38;;;20.30;99.90;;;;;;4956305;28;20047;-84
2021/08/08 08:03:23;;;;;;;3.33;1.10;;;22.10;99.90;;;;;;4959589;28;20031;-83
2021/08/08 08:05:49;;;;;;;0.63;0.20;;;21.90;99.90;;;;;;4951667;28;20035;-82
2021/08/08 08:08:15;;;;;;;0.20;0.20;;;23.00;99.90;;;;;;4954765;28;20078;-83
2021/08/08 08:10:41;;;;;;;0.20;0.20;;;24.50;99.90;;;;;;4955797;28;20032;-83
2021/08/08 08:13:07;;;;;;;0.10;0.10;;;26.90;99.80;;;;;;4956484;28;20031;-83
2021/08/08 08:15:32;;;;;;;0.20;0.10;;;28.90;95.70;;;;;;4957472;28;21045;-82
2021/08/08 08:17:59;;;;;;;0.00;0.00;;;29.70;94.30;;;;;;4954664;28;20528;-84
2021/08/08 08:20:24;;;;;;;0.03;0.03;;;27.50;93.80;;;;;;4953123;28;20508;-84
2021/08/08 08:22:50;;;;;;;0.10;0.08;;;26.00;95.10;;;;;;4954390;28;20051;-83
2021/08/08 08:25:17;;;;;;;0.08;0.08;;;25.00;96.80;;;;;;4955640;28;20038;-84
2021/08/08 08:27:43;;;;;;;0.20;0.20;;;27.60;95.20;;;;;;4956287;28;20159;-84
2021/08/08 08:30:09;;;;;;;0.00;0.00;;;25.50;92.90;;;;;;4951750;28;20039;-82
2021/08/08 08:32:35;;;;;;;0.00;0.00;;;22.60;98.70;;;;;;4953068;28;20035;-83
2021/08/08 08:35:03;;;;;;;0.10;0.10;;;20.90;99.90;;;;;;4949626;28;20046;-85
2021/08/08 08:37:30;;;;;;;0.00;0.00;;;20.60;99.90;;;;;;4953650;28;20063;-83
2021/08/08 08:39:57;;;;;;;0.00;0.00;;;26.20;98.80;;;;;;4952085;28;20051;-83
2021/08/08 08:42:22;;;;;;;;;;;30.20;91.90;;;;;;4956938;28;20037;-84
2021/08/08 08:44:51;;;;;;;;;;;29.50;91.50;;;;;;4954770;28;19914;-83
2021/08/08 08:47:18;;;;;;;0.00;0.00;;;28.30;94.00;;;;;;4957924;28;20377;-83
2021/08/08 08:49:48;;;;;;;0.00;0.00;;;31.50;87.10;;;;;;4957185;28;20058;-82
2021/08/08 08:52:20;;;;;;;0.00;0.00;;;26.80;88.90;;;;;;4954007;28;20031;-82
2021/08/08 08:54:46;;;;;;;0.00;0.00;;;30.30;85.90;;;;;;4958772;28;20067;-83
2021/08/08 08:57:12;;;;;;;1.45;0.70;;;28.90;84.20;;;;;;4954664;28;20074;-83
2021/08/08 08:59:38;;;;;;;0.50;0.35;;;26.40;88.80;;;;;;4957556;28;20058;-84
2021/08/08 09:02:04;;;;;;;0.00;0.00;;;26.80;86.80;;;;;;4956080;28;20106;-84
2021/08/08 09:04:29;;;;;;;0.10;0.10;;;26.50;90.20;;;;;;4949423;28;20081;-83
2021/08/08 09:06:55;;;;;;;0.00;0.00;;;29.00;81.30;;;;;;4957216;28;20564;-84
2021/08/08 09:09:21;;;;;;;0.00;0.00;;;25.50;84.60;;;;;;4956956;28;20050;-84
2021/08/08 09:11:47;;;;;;;0.10;0.10;;;28.20;81.70;;;;;;4958364;28;20031;-84
2021/08/08 09:14:15;;;;;;;;;;;30.30;77.10;;;;;;4958406;28;20117;-84
2021/08/08 09:16:49;;;;;;;0.10;0.10;;;30.00;74.30;;;;;;4957632;28;20161;-83
2021/08/08 09:19:26;;;;;;;0.35;0.30;;;25.40;82.50;;;;;;4958784;28;20338;-85
2021/08/08 09:21:52;;;;;;;0.00;0.00;;;28.90;80.00;;;;;;4959812;28;20058;-84
2021/08/08 09:24:31;;;;;;;0.25;0.25;;;28.30;75.70;;;;;;4959571;28;20035;-83
2021/08/08 09:27:07;;;;;;;0.55;0.40;;;24.80;86.90;;;;;;4959571;28;20120;-84
2021/08/08 09:29:39;;;;;;;0.10;0.10;;;30.00;76.50;;;;;;4954173;28;20530;-85
2021/08/08 09:32:05;;;;;;;0.00;0.00;;;26.90;76.20;;;;;;4961862;28;20121;-92
2021/08/08 09:34:34;;;;;;;0.20;0.20;;;24.20;86.80;;;;;;4958382;28;20093;-88
2021/08/08 09:37:02;;;;;;;0.15;0.08;;;24.20;91.30;;;;;;4960512;28;20039;-89
2021/08/08 09:39:43;;;;;;;0.25;0.25;;;29.20;79.00;;;;;;4959861;28;20039;-89
2021/08/08 09:42:26;;;;;;;0.30;0.28;;;26.80;74.50;;;;;;4955423;28;20435;-87
2021/08/08 09:44:56;;;;;;;1.45;0.95;;;29.20;74.40;;;;;;4960919;28;20035;-88
2021/08/08 09:47:34;;;;;;;0.63;0.60;;;25.90;78.00;;;;;;4958713;28;20038;-87
2021/08/08 09:50:04;;;;;;;3.28;2.25;;;23.40;89.60;;;;;;4958834;28;20111;-91
2021/08/08 09:52:31;;;;;;;4.50;0.55;;;23.90;88.10;;;;;;4952559;28;20181;-89
2021/08/08 09:54:56;;;;;;;;;;;28.00;74.00;;;;;;4960247;28;20031;-92
2021/08/08 09:57:22;;;;;;;;;;;29.40;73.60;;;;;;4979078;28;19914;-92
2021/08/08 09:59:51;;;;;;;0.37;0.37;;;33.70;59.60;;;;;;4970909;28;19961;-92
2021/08/08 10:02:21;;;;;;;0.40;0.40;;;31.10;57.60;;;;;;4958980;28;20030;-91
2021/08/08 10:04:50;;;;;;;0.20;0.10;;;27.40;69.50;;;;;;4957416;28;20069;-92
2021/08/08 10:07:17;;;;;;;0.10;0.10;;;24.70;79.40;;;;;;4968628;28;20051;-91
2021/08/08 10:09:49;;;;;;;1.77;0.15;;;23.50;84.60;;;;;;4962788;28;20031;-90
2021/08/08 10:12:44;;;;;;;0.00;0.00;;;22.40;88.60;;;;;;4962258;28;20029;-90
2021/08/08 10:15:11;;;;;;;0.00;0.00;;;22.30;90.40;;;;;;4956412;28;20043;-85
2021/08/08 10:17:41;;;;;;;;;;;22.20;90.70;;;;;;4958395;28;20585;-86
2021/08/08 10:20:08;;;;;;;0.00;0.00;;;21.80;91.70;;;;;;4955543;28;19981;-85
2021/08/08 10:22:36;;;;;;;0.28;0.28;;;21.30;92.20;;;;;;4956135;28;20097;-84
2021/08/08 10:25:02;;;;;;;0.65;0.47;;;20.90;93.50;;;;;;4958565;28;20034;-85
2021/08/08 10:27:30;;;;;;;0.17;0.17;;;21.20;93.30;;;;;;4960182;28;20035;-85
2021/08/08 10:29:58;;;;;;;4.18;0.50;;;23.40;90.70;;;;;;4962293;28;20042;-84
2021/08/08 10:32:27;;;;;;;0.00;0.00;;;23.90;88.80;;;;;;4965300;28;20027;-86
2021/08/08 10:34:54;;;;;;;0.15;0.15;;;26.60;79.90;;;;;;4965394;28;20081;-87
2021/08/08 10:37:25;;;;;;;0.00;0.00;;;25.20;80.40;;;;;;4954058;28;20031;-90
2021/08/08 10:39:52;;;;;;;0.00;0.00;;;24.00;84.70;;;;;;4960117;28;20159;-87
2021/08/08 10:42:20;;;;;;;0.00;0.00;;;25.50;83.90;;;;;;4957788;28;20110;-88
2021/08/08 10:44:59;;;;;;;0.00;0.00;;;27.90;76.40;;;;;;4954436;28;20351;-89
2021/08/08 10:47:27;;;;;;;0.08;0.08;;;26.60;77.20;;;;;;4954435;28;20034;-88
2021/08/08 10:49:53;;;;;;;0.20;0.20;;;26.90;76.50;;;;;;4958184;28;20082;-88
2021/08/08 10:52:19;;;;;;;0.00;0.00;;;25.50;78.70;;;;;;4957601;28;20038;-88
2021/08/08 10:54:47;;;;;;;0.10;0.10;;;24.30;81.80;;;;;;4960755;28;20038;-88
2021/08/08 10:57:14;;;;;;;0.05;0.05;;;24.00;84.20;;;;;;4953828;28;20102;-88
2021/08/08 10:59:51;;;;;;;0.63;0.63;;;23.70;86.50;;;;;;4958843;28;20062;-88
2021/08/08 11:02:28;;;;;;;0.10;0.10;;;23.10;87.60;;;;;;4956508;28;20031;-89
2021/08/08 11:04:55;;;;;;;0.15;0.13;;;23.40;87.70;;;;;;4954676;28;20030;-87
2021/08/08 11:07:28;;;;;;;0.05;0.00;;;25.40;87.50;;;;;;4958593;28;20063;-88
2021/08/08 11:09:55;;;;;;;0.28;0.28;;;24.90;83.50;;;;;;4951931;28;20038;-87
2021/08/08 11:12:35;;;;;;;2.13;0.73;;;24.90;83.80;;;;;;4953745;28;20070;-88
2021/08/08 11:15:00;;;;;;;0.00;0.00;;;24.60;83.80;;;;;;4953356;28;20510;-85
2021/08/08 11:17:27;;;;;;;0.00;0.00;;;24.40;84.20;;;;;;4948762;28;20019;-88
2021/08/08 11:19:54;;;;;;;0.20;0.20;;;25.20;82.00;;;;;;4953119;28;20039;-87
2021/08/08 11:22:21;;;;;;;0.22;0.22;;;24.60;81.30;;;;;;4952607;28;20105;-88
2021/08/08 11:25:05;;;;;;;;;;;24.70;81.90;;;;;;4947450;28;20082;-87
2021/08/08 11:27:37;;;;;;;0.00;0.00;;;24.60;82.70;;;;;;4952486;28;19914;-88
2021/08/08 11:30:06;;;;;;;0.00;0.00;;;24.70;83.40;;;;;;4955751;28;20045;-87
2021/08/08 11:32:33;;;;;;;0.00;0.00;;;24.10;85.50;;;;;;4956951;28;20450;-87
2021/08/08 11:35:09;;;;;;;0.40;0.20;;;23.50;87.50;;;;;;4959199;28;20027;-88
2021/08/08 11:37:43;;;;;;;0.20;0.20;;;23.30;87.90;;;;;;4954293;28;20074;-88
2021/08/08 11:40:30;;;;;;;0.00;0.00;;;23.90;87.80;;;;;;4951434;28;20100;-88
2021/08/08 11:43:01;;;;;;;0.00;0.00;;;23.60;87.70;;;;;;4954209;28;20036;-87
2021/08/08 11:45:44;;;;;;;0.00;0.00;;;23.20;88.20;;;;;;4965743;28;20042;-86
2021/08/08 11:48:11;;;;;;;0.05;0.05;;;23.20;87.60;;;;;;4955369;28;20039;-86
2021/08/08 11:50:38;;;;;;;11.88;0.90;;;23.70;86.60;;;;;;4962405;28;20030;-87
2021/08/08 11:53:06;;;;;;;0.40;0.10;;;23.30;95.60;;;;;;4962993;28;20030;-88
2021/08/08 11:55:34;;;;;;;0.00;0.00;;;23.00;90.30;;;;;;4964254;28;20030;-88
2021/08/08 11:58:11;;;;;;;0.00;0.00;;;23.60;90.70;;;;;;4965106;28;20041;-88
2021/08/08 12:00:41;;;;;;;14.43;0.50;;;23.40;90.40;;;;;;4965536;28;20299;-87
2021/08/08 12:03:09;;;;;;;0.00;0.00;;;23.20;91.30;;;;;;4962469;28;20647;-88
2021/08/08 12:05:37;;;;;;;0.00;0.00;;;23.00;91.40;;;;;;4964311;28;20046;-88
2021/08/08 12:08:04;;;;;;;0.17;0.10;;;22.60;91.60;;;;;;4962314;28;20121;-88
2021/08/08 12:10:38;;;;;;;0.00;0.00;;;22.50;90.80;;;;;;4954521;28;20406;-88
2021/08/08 12:13:17;;;;;;;7.20;0.43;;;22.50;90.60;;;;;;4963941;28;20041;-88
2021/08/08 12:15:43;;;;;;;0.05;0.05;;;23.00;90.30;;;;;;4969882;28;20031;-88
2021/08/08 12:18:09;;;;;;;0.00;0.00;;;22.90;90.30;;;;;;4967354;28;20026;-87
2021/08/08 12:20:41;;;;;;;0.57;0.30;;;23.60;90.60;;;;;;4969678;28;20074;-89
2021/08/08 12:23:07;;;;;;;0.00;0.00;;;24.10;89.40;;;;;;4968043;28;20057;-87
2021/08/08 12:25:33;;;;;;;1.45;0.47;;;24.10;89.30;;;;;;4966261;28;20050;-87
2021/08/08 12:27:59;;;;;;;0.10;0.05;;;24.20;86.40;;;;;;4967226;28;20850;-88
2021/08/08 12:30:27;;;;;;;0.10;0.10;;;23.90;88.70;;;;;;4967952;28;20042;-88
2021/08/08 12:33:09;;;;;;;0.00;0.00;;;23.60;89.50;;;;;;4965574;28;20089;-87
2021/08/08 12:35:40;;;;;;;1.15;0.70;;;23.40;88.40;;;;;;4967598;28;20098;-88
2021/08/08 12:38:16;;;;;;;0.10;0.10;;;22.90;90.30;;;;;;4965568;28;20058;-87
2021/08/08 12:40:50;;;;;;;0.57;0.57;;;23.30;89.40;;;;;;4955145;28;20041;-88
2021/08/08 12:43:22;;;;;;;0.05;0.05;;;23.40;89.70;;;;;;4967395;28;20318;-88
2021/08/08 12:45:48;;;;;;;0.30;0.25;;;23.30;88.80;;;;;;4964174;28;20049;-88
2021/08/08 12:48:14;;;;;;;0.10;0.10;;;23.20;90.50;;;;;;4966015;28;20031;-87
2021/08/08 12:50:43;;;;;;;0.10;0.10;;;23.70;90.00;;;;;;4967847;28;20393;-87